createdAt,value
2019-04-30T00:02:40.558Z,48.60
2019-04-30T00:05:10.091Z,46.00
2019-04-30T00:07:35.755Z,61.20
2019-04-30T00:10:06.614Z,49.15
2019-04-30T00:12:37.974Z,56.90
2019-04-30T00:15:03.064Z,54.73
2019-04-30T00:17:29.541Z,55.78
2019-04-30T00:19:59.835Z,51.08
2019-04-30T00:22:33.255Z,50.17
2019-04-30T00:24:52.329Z,47.58
2019-04-30T00:27:20.996Z,54.40
2019-04-30T00:29:47.235Z,54.13
2019-04-30T00:32:13.429Z,56.80
2019-04-30T00:34:39.770Z,52.50
2019-04-30T00:37:07.384Z,58.40
2019-04-30T00:39:35.560Z,54.95
2019-04-30T00:42:02.127Z,49.35
2019-04-30T00:44:28.564Z,51.92
2019-04-30T00:46:55.888Z,50.90
2019-04-30T00:49:23.150Z,48.00
2019-04-30T00:51:54.682Z,50.52
2019-04-30T00:54:22.490Z,52.58
2019-04-30T00:56:47.235Z,49.05
2019-04-30T00:59:15.103Z,48.30
2019-04-30T01:02:00.401Z,52.75
2019-04-30T01:04:45.018Z,51.48
2019-04-30T01:07:11.535Z,59.90
2019-04-30T01:09:39.559Z,62.85
2019-04-30T01:12:06.349Z,64.03
2019-04-30T01:14:33.030Z,61.63
2019-04-30T01:17:03.799Z,57.15
2019-04-30T01:19:30.602Z,68.92
2019-04-30T01:21:56.428Z,68.12
2019-04-30T01:24:23.367Z,54.90
2019-04-30T01:26:51.453Z,54.67
2019-04-30T01:29:19.243Z,67.12
2019-04-30T01:31:45.657Z,66.65
2019-04-30T01:34:14.010Z,56.02
2019-04-30T01:36:43.537Z,57.70
2019-04-30T01:39:09.498Z,55.23
2019-04-30T01:41:35.928Z,64.07
2019-04-30T01:44:03.710Z,58.63
2019-04-30T01:46:30.810Z,70.57
2019-04-30T01:48:58.818Z,69.05
2019-04-30T01:51:25.303Z,63.65
2019-04-30T01:53:51.916Z,72.60
2019-04-30T01:56:25.830Z,77.90
2019-04-30T01:58:53.961Z,75.67
2019-04-30T02:01:30.967Z,76.95
2019-04-30T02:03:58.506Z,82.85
2019-04-30T02:06:25.227Z,85.75
2019-04-30T02:08:51.852Z,72.82
2019-04-30T02:11:19.090Z,86.95
2019-04-30T02:13:46.932Z,83.60
2019-04-30T02:16:13.424Z,75.87
2019-04-30T02:18:40.033Z,75.22
2019-04-30T02:21:06.254Z,80.77
2019-04-30T02:23:32.924Z,83.30
2019-04-30T02:25:59.622Z,72.25
2019-04-30T02:28:28.841Z,71.62
2019-04-30T02:30:54.854Z,72.78
2019-04-30T02:33:21.489Z,78.12
2019-04-30T02:35:55.697Z,73.52
2019-04-30T02:38:30.271Z,67.67
2019-04-30T02:40:59.521Z,82.02
2019-04-30T02:43:30.081Z,79.35
2019-04-30T02:45:59.709Z,74.35
2019-04-30T02:48:29.509Z,73.65
2019-04-30T02:51:00.208Z,79.67
2019-04-30T02:53:50.832Z,75.37
2019-04-30T02:56:20.286Z,73.55
2019-04-30T02:58:46.998Z,69.25
2019-04-30T03:01:13.618Z,65.52
2019-04-30T03:03:42.707Z,69.58
2019-04-30T03:06:11.394Z,73.22
2019-04-30T03:08:36.593Z,75.97
2019-04-30T03:11:03.019Z,80.97
2019-04-30T03:13:29.927Z,76.60
2019-04-30T03:15:59.144Z,69.05
2019-04-30T03:18:26.566Z,64.87
2019-04-30T03:20:55.068Z,58.68
2019-04-30T03:23:21.468Z,59.95
2019-04-30T03:25:50.103Z,56.70
2019-04-30T03:28:16.376Z,69.87
2019-04-30T03:30:43.087Z,60.75
2019-04-30T03:33:12.664Z,56.08
2019-04-30T03:35:46.617Z,61.68
2019-04-30T03:38:06.223Z,59.75
2019-04-30T03:40:32.818Z,62.90
2019-04-30T03:42:59.748Z,69.67
2019-04-30T03:45:30.037Z,62.15
2019-04-30T03:47:55.636Z,68.78
2019-04-30T03:50:22.235Z,60.95
2019-04-30T03:52:50.337Z,63.80
2019-04-30T03:55:20.591Z,57.80
2019-04-30T03:57:51.677Z,56.80
2019-04-30T04:00:20.194Z,68.67
2019-04-30T04:02:49.863Z,62.67
2019-04-30T04:05:29.927Z,64.03
2019-04-30T04:07:59.826Z,69.37
2019-04-30T04:10:29.771Z,61.55
2019-04-30T04:12:56.395Z,63.50
2019-04-30T04:15:23.037Z,50.88
2019-04-30T04:17:50.368Z,61.35
2019-04-30T04:20:20.052Z,60.80
2019-04-30T04:22:45.912Z,54.15
2019-04-30T04:25:13.231Z,55.58
2019-04-30T04:27:39.911Z,62.45
2019-04-30T04:30:06.458Z,58.68
2019-04-30T04:32:32.784Z,53.50
2019-04-30T04:35:00.217Z,56.95
2019-04-30T04:37:29.304Z,61.85
2019-04-30T04:39:55.587Z,55.73
2019-04-30T04:42:22.580Z,57.62
2019-04-30T04:44:50.310Z,53.75
2019-04-30T04:47:19.470Z,56.58
2019-04-30T04:49:45.261Z,54.35
2019-04-30T04:52:11.681Z,60.78
2019-04-30T04:54:39.963Z,50.30
2019-04-30T04:57:17.044Z,51.75
2019-04-30T04:59:34.635Z,58.35
2019-04-30T05:02:03.124Z,47.67
2019-04-30T05:04:29.916Z,60.20
2019-04-30T05:06:56.372Z,51.28
2019-04-30T05:09:22.624Z,47.48
2019-04-30T05:11:48.895Z,48.75
2019-04-30T05:14:15.083Z,50.63
2019-04-30T05:16:41.311Z,50.12
2019-04-30T05:19:08.920Z,50.17
2019-04-30T05:21:42.760Z,50.60
2019-04-30T05:24:03.865Z,49.35
2019-04-30T05:26:30.096Z,57.53
2019-04-30T05:28:56.528Z,44.03
2019-04-30T05:31:22.803Z,43.23
2019-04-30T05:33:49.385Z,50.60
2019-04-30T05:36:15.795Z,49.30
2019-04-30T05:38:41.940Z,40.85
2019-04-30T05:41:09.323Z,44.63
2019-04-30T05:43:35.995Z,36.58
2019-04-30T05:46:02.178Z,44.55
2019-04-30T05:48:28.762Z,36.00
2019-04-30T05:50:56.254Z,64.85
2019-04-30T05:53:22.921Z,67.22
2019-04-30T05:55:49.589Z,38.38
2019-04-30T05:58:16.597Z,41.70
2019-04-30T06:00:42.861Z,39.48
2019-04-30T06:03:09.609Z,33.63
2019-04-30T06:05:36.353Z,42.03
2019-04-30T06:08:02.784Z,37.48
2019-04-30T06:10:49.270Z,40.28
2019-04-30T06:13:32.859Z,33.75
2019-04-30T06:16:01.305Z,66.07
2019-04-30T06:18:28.680Z,35.55
2019-04-30T06:20:55.461Z,38.35
2019-04-30T06:23:23.026Z,36.73
2019-04-30T06:25:57.558Z,44.45
2019-04-30T06:28:21.428Z,42.00
2019-04-30T06:30:49.285Z,35.15
2019-04-30T06:33:15.997Z,39.60
2019-04-30T06:35:42.513Z,46.30
2019-04-30T06:38:08.880Z,33.15
2019-04-30T06:40:35.486Z,35.98
2019-04-30T06:43:01.865Z,29.15
2019-04-30T06:45:30.161Z,34.33
2019-04-30T06:47:59.182Z,31.10
2019-04-30T06:50:25.413Z,28.77
2019-04-30T06:52:56.783Z,35.17
2019-04-30T06:55:19.712Z,28.47
2019-04-30T06:57:46.047Z,28.90
2019-04-30T07:00:13.997Z,31.15
2019-04-30T07:02:40.342Z,30.48
2019-04-30T07:05:09.937Z,30.43
2019-04-30T07:07:39.691Z,29.63
2019-04-30T07:10:10.170Z,28.73
2019-04-30T07:12:38.834Z,30.75
2019-04-30T07:15:05.564Z,32.15
2019-04-30T07:17:31.789Z,33.88
2019-04-30T07:19:59.728Z,32.70
2019-04-30T07:22:37.634Z,26.97
2019-04-30T07:24:54.172Z,28.35
2019-04-30T07:27:24.008Z,25.40
2019-04-30T07:29:49.488Z,26.40
2019-04-30T07:32:16.080Z,37.85
2019-04-30T07:34:42.336Z,31.97
2019-04-30T07:37:16.418Z,28.92
2019-04-30T07:39:36.604Z,28.02
2019-04-30T07:42:02.955Z,27.45
2019-04-30T07:44:36.226Z,27.37
2019-04-30T07:46:59.380Z,24.00
2019-04-30T07:49:25.293Z,27.25
2019-04-30T07:51:52.613Z,24.63
2019-04-30T07:54:19.511Z,26.37
2019-04-30T07:56:45.773Z,24.63
2019-04-30T07:59:11.987Z,25.48
2019-04-30T08:01:59.998Z,24.65
2019-04-30T08:04:08.804Z,27.62
2019-04-30T08:06:35.666Z,23.90
2019-04-30T08:09:06.450Z,23.87
2019-04-30T08:11:34.415Z,23.90
2019-04-30T08:14:01.461Z,22.80
2019-04-30T08:16:28.739Z,25.97
2019-04-30T08:18:55.081Z,26.95
2019-04-30T08:21:21.509Z,25.27
2019-04-30T08:23:48.929Z,22.13
2019-04-30T08:26:15.899Z,28.70
2019-04-30T08:28:42.225Z,23.73
2019-04-30T08:31:08.956Z,25.37
2019-04-30T08:33:35.510Z,22.67
2019-04-30T08:36:01.820Z,28.30
2019-04-30T08:38:29.923Z,22.15
2019-04-30T08:40:58.807Z,25.20
2019-04-30T08:43:24.125Z,27.35
2019-04-30T08:45:50.394Z,27.27
2019-04-30T08:48:18.729Z,24.52
2019-04-30T08:50:44.846Z,26.60
2019-04-30T08:53:11.842Z,26.23
2019-04-30T08:55:39.109Z,23.75
2019-04-30T08:58:09.811Z,23.55
2019-04-30T09:00:33.740Z,25.20
2019-04-30T09:02:59.993Z,24.52
2019-04-30T09:05:30.455Z,24.25
2019-04-30T09:07:56.192Z,24.05
2019-04-30T09:10:22.418Z,26.77
2019-04-30T09:12:49.556Z,25.00
2019-04-30T09:15:18.722Z,34.33
2019-04-30T09:17:58.144Z,31.20
2019-04-30T09:20:13.061Z,31.45
2019-04-30T09:22:39.409Z,26.73
2019-04-30T09:25:05.757Z,30.08
2019-04-30T09:27:31.994Z,23.35
2019-04-30T09:29:58.794Z,24.57
2019-04-30T09:32:25.470Z,26.37
2019-04-30T09:34:51.724Z,28.20
2019-04-30T09:37:18.687Z,24.37
2019-04-30T09:39:47.006Z,24.43
2019-04-30T09:42:13.220Z,28.65
2019-04-30T09:44:39.608Z,30.32
2019-04-30T09:47:05.830Z,29.67
2019-04-30T09:49:32.053Z,26.48
2019-04-30T09:51:59.514Z,22.70
2019-04-30T09:54:28.569Z,27.85
2019-04-30T09:56:54.473Z,44.27
2019-04-30T09:59:21.013Z,24.85
2019-04-30T10:01:47.762Z,20.35
2019-04-30T10:04:14.660Z,18.75
2019-04-30T10:06:41.856Z,20.55
2019-04-30T10:09:10.864Z,20.25
2019-04-30T10:11:42.258Z,20.30
2019-04-30T10:14:08.494Z,22.25
2019-04-30T10:16:42.481Z,22.30
2019-04-30T10:19:10.245Z,22.10
2019-04-30T10:21:38.748Z,23.42
2019-04-30T10:24:13.110Z,21.50
2019-04-30T10:26:34.264Z,22.27
2019-04-30T10:29:01.243Z,21.12
2019-04-30T10:31:29.316Z,17.85
2019-04-30T10:33:55.608Z,20.23
2019-04-30T10:36:21.832Z,20.27
2019-04-30T10:38:49.391Z,22.32
2019-04-30T10:41:16.038Z,19.05
2019-04-30T10:43:42.356Z,20.15
2019-04-30T10:46:09.677Z,20.68
2019-04-30T10:48:36.236Z,19.70
2019-04-30T10:51:02.588Z,24.05
2019-04-30T10:53:28.937Z,23.50
2019-04-30T10:55:55.420Z,23.92
2019-04-30T10:58:21.646Z,20.70
2019-04-30T11:00:49.869Z,21.48
2019-04-30T11:03:20.782Z,27.17
2019-04-30T11:05:44.268Z,22.02
2019-04-30T11:08:10.733Z,21.65
2019-04-30T11:10:37.392Z,18.95
2019-04-30T11:13:03.725Z,24.07
2019-04-30T11:15:30.130Z,21.62
2019-04-30T11:17:57.024Z,21.68
2019-04-30T11:20:23.639Z,25.12
2019-04-30T11:22:50.563Z,28.90
2019-04-30T11:25:17.287Z,27.35
2019-04-30T11:27:44.827Z,22.35
2019-04-30T11:30:23.284Z,23.35
2019-04-30T11:32:41.480Z,22.98
2019-04-30T11:35:08.761Z,23.90
2019-04-30T11:37:34.980Z,22.98
2019-04-30T11:40:01.473Z,23.07
2019-04-30T11:42:28.902Z,21.65
2019-04-30T11:44:55.156Z,27.77
2019-04-30T11:47:23.740Z,23.05
2019-04-30T11:49:50.291Z,23.40
2019-04-30T11:52:16.818Z,23.20
2019-04-30T11:54:51.543Z,22.85
2019-04-30T11:57:11.818Z,22.32
2019-04-30T11:59:39.546Z,26.52
2019-04-30T12:02:08.002Z,34.98
2019-04-30T12:04:34.229Z,29.72
2019-04-30T12:07:02.473Z,30.12
2019-04-30T12:09:48.485Z,40.67
2019-04-30T12:12:14.821Z,29.15
2019-04-30T12:14:41.044Z,26.90
2019-04-30T12:17:07.411Z,31.62
2019-04-30T12:19:33.630Z,29.82
2019-04-30T12:21:59.858Z,28.50
2019-04-30T12:24:26.348Z,30.92
2019-04-30T12:26:52.572Z,28.92
2019-04-30T12:29:19.163Z,28.07
2019-04-30T12:31:45.848Z,27.98
2019-04-30T12:34:12.113Z,28.10
2019-04-30T12:36:38.853Z,31.60
2019-04-30T12:39:06.267Z,32.95
2019-04-30T12:41:32.489Z,30.70
2019-04-30T12:43:58.785Z,30.90
2019-04-30T12:46:25.025Z,33.35
2019-04-30T12:49:10.254Z,28.25
2019-04-30T12:51:45.587Z,28.98
2019-04-30T12:54:14.808Z,31.55
2019-04-30T12:59:34.514Z,30.57
2019-04-30T13:02:00.888Z,27.67
2019-04-30T13:04:29.215Z,29.07
2019-04-30T13:06:55.651Z,31.00
2019-04-30T13:09:22.718Z,30.72
2019-04-30T13:11:50.780Z,31.65
2019-04-30T13:14:19.818Z,31.65
2019-04-30T13:16:49.034Z,32.78
2019-04-30T13:21:41.854Z,36.63
2019-04-30T13:24:08.367Z,37.17
2019-04-30T13:26:34.663Z,27.55
2019-04-30T13:29:09.170Z,37.08
2019-04-30T13:31:35.696Z,38.40
2019-04-30T13:34:04.274Z,38.40
2019-04-30T13:36:30.533Z,37.20
2019-04-30T13:38:59.504Z,35.03
2019-04-30T13:41:29.749Z,49.15
2019-04-30T13:43:58.757Z,40.43
2019-04-30T13:46:25.319Z,35.27
2019-04-30T13:48:52.148Z,32.70
2019-04-30T13:51:18.944Z,40.45
2019-04-30T13:53:45.188Z,45.80
2019-04-30T13:56:11.547Z,35.95
2019-04-30T13:58:38.109Z,32.67
2019-04-30T14:01:05.618Z,37.85
2019-04-30T14:03:34.046Z,40.88
2019-04-30T14:06:00.470Z,36.30
2019-04-30T14:08:29.093Z,40.08
2019-04-30T14:10:55.753Z,36.75
2019-04-30T14:13:22.481Z,39.95
2019-04-30T14:15:49.079Z,39.73
2019-04-30T14:18:27.972Z,41.68
2019-04-30T14:20:43.955Z,34.33
2019-04-30T14:23:10.838Z,40.48
2019-04-30T14:25:37.221Z,35.75
2019-04-30T14:28:04.290Z,33.50
2019-04-30T14:30:31.109Z,36.70
2019-04-30T14:32:59.314Z,45.40
2019-04-30T14:35:25.825Z,40.08
2019-04-30T14:37:52.489Z,36.20
2019-04-30T14:40:20.357Z,37.40
2019-04-30T14:42:52.125Z,40.30
2019-04-30T14:45:24.419Z,39.78
2019-04-30T14:48:05.837Z,44.65
2019-04-30T14:50:34.512Z,38.58
2019-04-30T14:53:02.893Z,39.45
2019-04-30T14:55:32.587Z,38.42
2019-04-30T14:58:20.274Z,38.73
2019-04-30T15:01:06.212Z,34.33
2019-04-30T15:03:34.505Z,34.85
2019-04-30T15:06:00.958Z,40.85
2019-04-30T15:08:29.192Z,37.17
2019-04-30T15:10:55.796Z,36.28
2019-04-30T15:13:22.404Z,33.23
2019-04-30T15:15:49.204Z,38.28
2019-04-30T15:18:16.112Z,41.10
2019-04-30T15:20:42.825Z,35.98
2019-04-30T15:23:19.043Z,41.35
2019-04-30T15:25:42.181Z,38.90
2019-04-30T15:28:09.865Z,35.30
2019-04-30T15:30:36.248Z,36.03
2019-04-30T15:33:09.366Z,38.33
2019-04-30T15:35:35.673Z,38.70
2019-04-30T15:38:02.021Z,41.65
2019-04-30T15:40:28.882Z,41.77
2019-04-30T15:42:57.204Z,39.53
2019-04-30T15:45:23.458Z,51.55
2019-04-30T15:47:49.749Z,45.10
2019-04-30T15:50:16.312Z,40.23
2019-04-30T15:52:42.576Z,45.15
2019-04-30T15:55:12.129Z,42.50
2019-04-30T15:57:59.339Z,48.95
2019-04-30T16:00:29.225Z,46.70
2019-04-30T16:03:00.789Z,43.15
2019-04-30T16:05:31.946Z,40.33
2019-04-30T16:08:00.482Z,46.13
2019-04-30T16:10:45.642Z,45.05
2019-04-30T16:13:14.129Z,51.18
2019-04-30T16:15:40.454Z,42.33
2019-04-30T16:18:06.789Z,39.15
2019-04-30T16:20:33.409Z,39.75
2019-04-30T16:23:00.270Z,48.78
2019-04-30T16:25:26.664Z,44.30
2019-04-30T16:27:52.876Z,49.05
2019-04-30T16:30:19.667Z,39.42
2019-04-30T16:32:46.236Z,46.80
2019-04-30T16:35:12.944Z,49.18
2019-04-30T16:37:39.429Z,52.48
2019-04-30T16:40:06.225Z,41.23
2019-04-30T16:42:32.787Z,46.23
2019-04-30T16:45:00.843Z,44.42
2019-04-30T16:47:29.589Z,43.33
2019-04-30T16:49:55.909Z,43.60
2019-04-30T16:52:22.502Z,45.15
2019-04-30T16:54:49.698Z,42.73
2019-04-30T16:57:16.596Z,40.38
2019-04-30T16:59:43.277Z,39.45
2019-04-30T17:02:10.096Z,45.38
2019-04-30T17:04:39.014Z,48.28
2019-04-30T17:07:24.643Z,36.90
2019-04-30T17:09:59.080Z,43.33
2019-04-30T17:12:29.310Z,44.55
2019-04-30T17:14:58.675Z,46.80
2019-04-30T17:17:25.394Z,39.88
2019-04-30T17:19:51.975Z,41.77
2019-04-30T17:22:18.202Z,42.35
2019-04-30T17:24:44.874Z,45.65
2019-04-30T17:27:19.323Z,47.83
2019-04-30T17:29:39.809Z,48.85
2019-04-30T17:32:08.380Z,54.15
2019-04-30T17:34:34.690Z,44.70
2019-04-30T17:37:01.348Z,48.78
2019-04-30T17:39:28.061Z,50.08
2019-04-30T17:41:54.668Z,44.15
2019-04-30T17:44:40.745Z,44.60
2019-04-30T17:47:09.030Z,51.65
2019-04-30T17:49:35.516Z,50.48
2019-04-30T17:52:02.236Z,46.02
2019-04-30T17:54:28.813Z,45.55
2019-04-30T17:56:55.308Z,53.68
2019-04-30T17:59:21.568Z,51.33
2019-04-30T18:01:52.961Z,48.98
2019-04-30T18:04:22.025Z,50.85
2019-04-30T18:06:48.444Z,52.25
2019-04-30T18:09:19.097Z,58.17
2019-04-30T18:14:12.093Z,53.78
2019-04-30T18:16:38.816Z,56.02
2019-04-30T18:19:10.145Z,52.10
2019-04-30T18:21:40.069Z,51.50
2019-04-30T18:26:42.175Z,53.52
2019-04-30T18:29:08.665Z,53.33
2019-04-30T18:31:35.308Z,61.18
2019-04-30T18:34:01.534Z,58.98
2019-04-30T18:36:29.410Z,56.90
2019-04-30T18:38:56.020Z,55.55
2019-04-30T18:41:22.306Z,58.58
2019-04-30T18:43:48.910Z,63.63
2019-04-30T18:46:15.528Z,60.90
2019-04-30T18:48:41.813Z,69.17
2019-04-30T18:51:23.828Z,58.08
2019-04-30T18:53:39.710Z,66.57
2019-04-30T18:56:09.946Z,64.70
2019-04-30T18:58:39.873Z,64.85
2019-04-30T19:01:03.642Z,62.58
2019-04-30T19:03:30.237Z,56.40
2019-04-30T19:05:58.759Z,67.53
2019-04-30T19:08:45.321Z,62.90
2019-04-30T19:11:19.833Z,60.90
2019-04-30T19:13:53.728Z,60.10
2019-04-30T19:16:25.848Z,71.02
2019-04-30T19:18:55.794Z,54.80
2019-04-30T19:21:23.027Z,59.15
2019-04-30T19:23:49.585Z,53.87
2019-04-30T19:26:16.253Z,56.00
2019-04-30T19:28:42.860Z,57.40
2019-04-30T19:31:11.620Z,57.53
2019-04-30T19:33:38.921Z,56.30
2019-04-30T19:36:05.232Z,55.75
2019-04-30T19:38:31.917Z,60.63
2019-04-30T19:40:58.523Z,57.08
2019-04-30T19:43:25.181Z,53.85
2019-04-30T19:45:51.396Z,51.75
2019-04-30T19:48:17.656Z,57.98
2019-04-30T19:50:44.290Z,50.10
2019-04-30T19:53:10.880Z,54.48
2019-04-30T19:55:39.410Z,57.00
2019-04-30T19:58:06.253Z,48.23
2019-04-30T20:00:32.973Z,55.40
2019-04-30T20:02:59.941Z,54.65
2019-04-30T20:05:28.575Z,51.08
2019-04-30T20:07:54.815Z,52.40
2019-04-30T20:10:21.453Z,51.63
2019-04-30T20:12:49.770Z,62.03
2019-04-30T20:15:19.577Z,58.60
2019-04-30T20:17:44.314Z,62.88
2019-04-30T20:20:11.305Z,54.10
2019-04-30T20:22:38.973Z,55.25
2019-04-30T20:25:06.211Z,57.08
2019-04-30T20:27:32.841Z,52.17
2019-04-30T20:29:59.505Z,57.90
2019-04-30T20:32:33.952Z,57.78
2019-04-30T20:34:54.423Z,58.02
2019-04-30T20:37:21.020Z,55.43
2019-04-30T20:39:58.638Z,62.35
2019-04-30T20:42:25.372Z,61.40
2019-04-30T20:44:51.611Z,62.30
2019-04-30T20:47:18.776Z,63.02
2019-04-30T20:49:46.553Z,59.70
2019-04-30T20:52:13.184Z,62.85
2019-04-30T20:54:39.795Z,72.70
2019-04-30T20:57:08.607Z,75.12
2019-04-30T20:59:34.728Z,65.22
2019-04-30T21:02:01.437Z,63.63
2019-04-30T21:04:28.004Z,64.87
2019-04-30T21:06:54.612Z,67.47
2019-04-30T21:09:20.884Z,65.25
2019-04-30T21:12:08.863Z,69.58
2019-04-30T21:14:35.065Z,60.65
2019-04-30T21:17:01.652Z,67.67
2019-04-30T21:19:28.284Z,67.60
2019-04-30T21:21:54.573Z,74.15
2019-04-30T21:24:21.156Z,65.20
2019-04-30T21:26:47.417Z,71.35
2019-04-30T21:29:16.064Z,70.03
2019-04-30T21:31:52.864Z,64.92
2019-04-30T21:34:26.957Z,65.32
2019-04-30T21:36:53.189Z,69.60
2019-04-30T21:39:20.114Z,60.75
2019-04-30T21:41:46.466Z,68.85
2019-04-30T21:44:12.723Z,75.45
2019-04-30T21:46:39.549Z,68.55
2019-04-30T21:49:06.020Z,74.32
2019-04-30T21:51:32.275Z,63.52
2019-04-30T21:53:58.584Z,61.37
2019-04-30T21:56:24.816Z,80.30
2019-04-30T21:58:50.936Z,77.27
2019-04-30T22:01:19.480Z,73.62
2019-04-30T22:03:46.701Z,73.30
2019-04-30T22:06:13.160Z,78.85
2019-04-30T22:08:39.283Z,81.55
2019-04-30T22:11:05.401Z,68.95
2019-04-30T22:13:31.652Z,87.72
2019-04-30T22:15:57.873Z,76.12
2019-04-30T22:18:24.088Z,77.92
2019-04-30T22:20:50.328Z,76.45
2019-04-30T22:23:16.453Z,70.60
2019-04-30T22:25:42.692Z,76.12
2019-04-30T22:28:08.815Z,73.20
2019-04-30T22:30:35.264Z,63.75
2019-04-30T22:33:01.485Z,78.42
2019-04-30T22:35:29.644Z,78.30
2019-04-30T22:37:59.256Z,71.05
2019-04-30T22:40:25.788Z,74.37
2019-04-30T22:42:52.043Z,84.13
2019-04-30T22:45:20.248Z,72.58
2019-04-30T22:47:46.504Z,74.42
2019-04-30T22:50:12.957Z,84.47
2019-04-30T22:52:39.224Z,77.80
2019-04-30T22:55:06.644Z,77.40
2019-04-30T22:57:32.756Z,79.12
2019-04-30T22:59:58.921Z,90.20
2019-04-30T23:02:37.543Z,77.92
2019-04-30T23:05:06.990Z,88.62
2019-04-30T23:07:33.568Z,88.40
2019-04-30T23:09:59.825Z,77.42
2019-04-30T23:12:26.041Z,81.45
2019-04-30T23:14:52.314Z,86.45
2019-04-30T23:17:18.524Z,80.45
2019-04-30T23:19:49.319Z,78.10
2019-04-30T23:22:12.804Z,73.25
2019-04-30T23:24:39.029Z,68.85
2019-04-30T23:27:05.182Z,71.85
2019-04-30T23:29:31.400Z,83.58
2019-04-30T23:31:57.662Z,79.62
2019-04-30T23:34:23.891Z,80.80
2019-04-30T23:36:50.357Z,81.35
2019-04-30T23:39:16.596Z,84.37
2019-04-30T23:41:42.824Z,86.40
2019-04-30T23:44:09.095Z,88.90
2019-04-30T23:46:35.328Z,83.90
2019-04-30T23:49:01.553Z,77.15
2019-04-30T23:51:27.930Z,72.70
2019-04-30T23:53:54.770Z,79.40
2019-04-30T23:56:21.004Z,76.72
2019-04-30T23:58:47.217Z,86.78
